Camp Beauregard, Louisiana
Current Conditions -  °F | °C
As of 10:53 AM on Tuesday 27 Jan 2015 (Local Time) from KESF Reporting Station
Clear Clear  
Wind Chill: 67°   Ceiling: Unl
Heat Index: 67°   Visibility: 10mi
Dew Point: 41°   Wind: 5mph
Humidity: 39%   Direction: NA
Pressure: 30.16"   Gusts: NA
Location:  31.3398°N, 92.3739°W
Report Text: KESF 271653Z AUTO VRB04KT 10SM CLR 19/05 A3016 RMK AO2 SLP212 T01940050
Loading
Personal Weather Stations






























Interactive Weather Map New forecast layout! Learn more

10-Day Weather Forecast

Advertisements
Track Severe Weather on mobile